createdAt,value
2019-05-10T00:03:08.352Z,1.50
2019-05-10T00:08:28.704Z,1.13
2019-05-10T00:13:33.327Z,1.50
2019-05-10T00:18:35.719Z,1.40
2019-05-10T00:23:39.516Z,1.33
2019-05-10T00:28:41.923Z,1.67
2019-05-10T00:33:44.393Z,1.40
2019-05-10T00:38:46.879Z,1.63
2019-05-10T00:43:49.286Z,1.30
2019-05-10T00:48:51.711Z,1.43
2019-05-10T00:53:54.395Z,1.67
2019-05-10T00:58:56.711Z,1.30
2019-05-10T01:03:58.979Z,1.57
2019-05-10T01:09:01.532Z,1.43
2019-05-10T01:14:05.905Z,1.50
2019-05-10T01:19:08.319Z,1.60
2019-05-10T01:24:10.779Z,1.37
2019-05-10T01:29:13.445Z,1.37
2019-05-10T01:34:15.839Z,1.93
2019-05-10T01:39:18.151Z,1.50
2019-05-10T01:44:20.847Z,1.40
2019-05-10T01:49:23.187Z,1.60
2019-05-10T01:54:26.959Z,1.67
2019-05-10T01:59:29.260Z,1.40
2019-05-10T02:04:31.699Z,1.50
2019-05-10T02:09:34.193Z,1.57
2019-05-10T02:14:41.852Z,1.60
2019-05-10T02:19:44.285Z,1.40
2019-05-10T02:24:46.717Z,1.33
2019-05-10T02:29:49.111Z,1.53
2019-05-10T02:34:52.712Z,1.43
2019-05-10T02:39:55.089Z,1.40
2019-05-10T02:44:57.492Z,1.63
2019-05-10T02:49:59.952Z,1.70
2019-05-10T02:55:03.240Z,1.57
2019-05-10T03:00:06.886Z,1.50
2019-05-10T03:05:09.301Z,1.80
2019-05-10T03:10:12.133Z,1.83
2019-05-10T03:15:14.738Z,2.10
2019-05-10T03:20:18.143Z,2.37
2019-05-10T03:25:20.575Z,2.27
2019-05-10T03:30:23.043Z,2.10
2019-05-10T03:35:25.489Z,2.40
2019-05-10T03:40:28.861Z,2.13
2019-05-10T03:45:31.360Z,2.60
2019-05-10T03:50:33.824Z,2.27
2019-05-10T03:55:36.349Z,2.10
2019-05-10T04:00:39.012Z,2.23
2019-05-10T04:05:41.502Z,2.30
2019-05-10T04:10:44.804Z,1.83
2019-05-10T04:15:47.546Z,2.50
2019-05-10T04:20:53.108Z,2.60
2019-05-10T04:25:55.731Z,2.67
2019-05-10T04:31:00.350Z,2.60
2019-05-10T04:36:03.557Z,2.30
2019-05-10T04:41:06.544Z,2.30
2019-05-10T04:46:34.364Z,2.50
2019-05-10T04:51:37.069Z,2.13
2019-05-10T04:56:39.468Z,1.77
2019-05-10T05:01:42.244Z,2.37
2019-05-10T05:06:45.265Z,2.30
2019-05-10T05:11:47.650Z,2.47
2019-05-10T05:16:56.094Z,2.47
2019-05-10T05:21:58.909Z,2.50
2019-05-10T05:27:02.015Z,2.80
2019-05-10T05:32:04.650Z,2.50
2019-05-10T05:37:07.564Z,2.97
2019-05-10T05:42:16.909Z,2.70
2019-05-10T05:47:30.173Z,2.47
2019-05-10T05:52:33.606Z,2.30
2019-05-10T05:57:37.208Z,2.83
2019-05-10T06:02:44.936Z,2.07
2019-05-10T06:07:44.785Z,2.50
2019-05-10T06:12:50.593Z,2.30
2019-05-10T06:17:57.146Z,2.33
2019-05-10T06:23:10.168Z,2.23
2019-05-10T06:28:25.656Z,2.10
2019-05-10T06:33:45.069Z,2.17
2019-05-10T06:38:45.053Z,1.63
2019-05-10T06:43:51.381Z,1.60
2019-05-10T06:48:52.095Z,1.50
2019-05-10T06:53:54.701Z,1.57
2019-05-10T06:59:11.976Z,1.50
2019-05-10T07:04:01.784Z,1.37
2019-05-10T07:09:06.856Z,1.70
2019-05-10T07:14:09.355Z,1.80
2019-05-10T07:19:12.602Z,1.70
2019-05-10T07:24:18.446Z,1.70
2019-05-10T07:29:29.604Z,1.63
2019-05-10T07:34:25.055Z,1.43
2019-05-10T07:39:27.435Z,1.50
2019-05-10T07:44:30.082Z,1.20
2019-05-10T07:49:32.621Z,1.43
2019-05-10T07:54:37.696Z,1.70
2019-05-10T07:59:50.255Z,1.80
2019-05-10T08:04:43.612Z,1.77
2019-05-10T08:09:46.767Z,1.50
2019-05-10T08:14:53.601Z,1.70
2019-05-10T08:19:55.421Z,2.10
2019-05-10T08:24:57.851Z,1.23
2019-05-10T08:30:25.668Z,2.20
2019-05-10T08:35:05.435Z,1.47
2019-05-10T08:40:08.470Z,2.00
2019-05-10T08:45:12.528Z,1.30
2019-05-10T08:50:34.383Z,1.53
2019-05-10T08:55:20.016Z,1.50
2019-05-10T09:00:41.638Z,1.37
2019-05-10T09:05:29.288Z,1.87
2019-05-10T09:10:32.387Z,1.30
2019-05-10T09:15:34.775Z,1.67
2019-05-10T09:20:37.052Z,1.60
2019-05-10T09:25:39.475Z,1.70
2019-05-10T09:30:56.380Z,1.37
2019-05-10T09:35:51.499Z,1.70
2019-05-10T09:40:55.547Z,1.60
2019-05-10T09:45:54.551Z,1.10
2019-05-10T09:51:00.765Z,1.37
2019-05-10T09:56:03.181Z,1.70
2019-05-10T10:01:16.979Z,1.60
2019-05-10T10:06:11.384Z,1.60
2019-05-10T10:11:18.051Z,1.47
2019-05-10T10:16:19.367Z,1.67
2019-05-10T10:21:30.500Z,1.27
2019-05-10T10:26:26.916Z,1.73
2019-05-10T10:31:33.430Z,1.57
2019-05-10T10:36:41.278Z,1.50
2019-05-10T10:41:38.961Z,1.53
2019-05-10T10:46:41.712Z,1.33
2019-05-10T10:51:44.036Z,1.47
2019-05-10T10:56:48.234Z,1.67
2019-05-10T11:02:16.191Z,1.70
2019-05-10T11:07:09.436Z,1.53
2019-05-10T11:12:00.925Z,1.63
2019-05-10T11:17:03.534Z,1.50
2019-05-10T11:22:09.518Z,1.40
2019-05-10T11:27:13.143Z,1.50
2019-05-10T11:32:17.036Z,1.70
2019-05-10T11:37:31.243Z,1.80
2019-05-10T11:42:23.942Z,1.60
2019-05-10T11:47:27.316Z,1.40
2019-05-10T11:52:34.751Z,1.70
2019-05-10T11:57:35.561Z,1.67
2019-05-10T12:03:01.523Z,1.60
2019-05-10T12:07:54.168Z,1.60
2019-05-10T12:13:08.741Z,1.70
2019-05-10T12:17:59.755Z,2.00
2019-05-10T12:29:12.132Z,1.90
2019-05-10T12:34:14.752Z,1.80
2019-05-10T12:51:37.109Z,1.73
2019-05-10T12:56:43.955Z,1.90
2019-05-10T13:01:45.795Z,1.60
2019-05-10T13:06:49.054Z,1.63
2019-05-10T13:12:03.025Z,1.70
2019-05-10T13:16:57.069Z,1.70
2019-05-10T13:22:00.809Z,1.57
2019-05-10T13:27:04.069Z,2.13
2019-05-10T13:32:08.561Z,1.50
2019-05-10T13:37:50.105Z,1.60
2019-05-10T13:42:54.009Z,1.50
2019-05-10T13:47:58.456Z,1.40
2019-05-10T13:53:00.843Z,1.50
2019-05-10T13:58:03.576Z,1.40
2019-05-10T14:03:26.356Z,1.12
2019-05-10T14:08:50.383Z,1.73
2019-05-10T14:25:57.524Z,1.10
2019-05-10T14:31:20.661Z,0.82
2019-05-10T14:37:01.261Z,1.10
2019-05-10T14:42:23.841Z,1.43
2019-05-10T14:47:28.242Z,1.10
2019-05-10T14:52:59.177Z,1.30
2019-05-10T14:58:02.721Z,1.30
2019-05-10T15:03:09.658Z,1.13
2019-05-10T15:08:35.585Z,1.53
2019-05-10T15:13:43.460Z,1.53
2019-05-10T15:18:48.463Z,1.70
2019-05-10T15:35:07.572Z,1.67
2019-05-10T15:46:35.421Z,1.45
2019-05-10T15:51:49.182Z,1.40
2019-05-10T15:57:00.010Z,1.20
2019-05-10T16:02:23.007Z,1.00
2019-05-10T16:07:30.130Z,1.30
2019-05-10T16:12:58.019Z,1.63
2019-05-10T16:18:01.763Z,1.03
2019-05-10T16:23:09.358Z,1.57
2019-05-10T16:28:20.904Z,2.03
2019-05-10T16:33:25.134Z,1.90
2019-05-10T16:38:43.461Z,2.00
2019-05-10T16:43:51.504Z,2.37
2019-05-10T16:49:10.225Z,2.77
2019-05-10T16:54:25.421Z,2.50
2019-05-10T16:59:40.113Z,2.00
2019-05-10T17:10:20.779Z,1.90
2019-05-10T17:15:45.186Z,3.23
2019-05-10T17:32:45.775Z,13.13
2019-05-10T17:37:53.031Z,3.00
2019-05-10T19:18:25.259Z,3.43
2019-05-10T20:51:34.670Z,4.60
2019-05-10T21:20:08.274Z,5.00
2019-05-10T21:25:13.993Z,4.63
2019-05-10T21:30:16.910Z,4.47
2019-05-10T21:35:19.786Z,4.13
2019-05-10T21:40:22.571Z,4.20
2019-05-10T21:45:25.258Z,4.40
2019-05-10T21:50:27.664Z,4.70
2019-05-10T21:55:30.143Z,4.43
2019-05-10T22:00:36.690Z,5.03
2019-05-10T22:05:39.266Z,5.43
2019-05-10T22:10:42.497Z,4.50
2019-05-10T22:15:44.959Z,4.90
2019-05-10T22:20:47.530Z,4.77
2019-05-10T22:25:50.132Z,4.90
2019-05-10T22:30:53.777Z,4.03
2019-05-10T22:35:56.504Z,4.93
2019-05-10T22:40:59.665Z,4.90
2019-05-10T22:46:02.114Z,4.87
2019-05-10T22:51:04.732Z,4.60
2019-05-10T22:56:07.135Z,5.20
2019-05-10T23:01:09.521Z,4.50
2019-05-10T23:06:12.591Z,5.00
2019-05-10T23:11:15.162Z,5.23
2019-05-10T23:16:17.616Z,4.67
2019-05-10T23:21:20.015Z,4.53
2019-05-10T23:26:22.629Z,4.53
2019-05-10T23:31:26.073Z,4.97
2019-05-10T23:36:28.667Z,5.00
2019-05-10T23:41:31.257Z,5.27
2019-05-10T23:46:33.724Z,5.57
2019-05-10T23:51:56.154Z,4.60
2019-05-10T23:56:58.639Z,5.33
